createdAt,value
2019-03-20T00:00:36.274Z,2.55
2019-03-20T00:03:05.787Z,2.56
2019-03-20T00:05:35.034Z,2.56
2019-03-20T00:08:04.222Z,2.54
2019-03-20T00:10:33.497Z,2.50
2019-03-20T00:13:02.789Z,2.48
2019-03-20T00:15:32.082Z,2.48
2019-03-20T00:18:01.312Z,2.45
2019-03-20T00:20:30.594Z,2.44
2019-03-20T00:22:59.795Z,2.43
2019-03-20T00:25:29.022Z,2.42
2019-03-20T00:27:58.219Z,2.41
2019-03-20T00:30:27.488Z,2.40
2019-03-20T00:32:56.762Z,2.40
2019-03-20T00:35:25.982Z,2.38
2019-03-20T00:37:55.262Z,2.39
2019-03-20T00:40:24.486Z,2.41
2019-03-20T00:42:53.773Z,2.44
2019-03-20T00:45:22.983Z,2.45
2019-03-20T00:47:52.264Z,2.45
2019-03-20T00:50:21.587Z,2.47
2019-03-20T00:52:50.865Z,2.46
2019-03-20T00:55:20.064Z,2.49
2019-03-20T00:57:49.280Z,2.47
2019-03-20T01:00:18.583Z,2.48
2019-03-20T01:02:47.888Z,2.44
2019-03-20T01:05:17.183Z,2.45
2019-03-20T01:07:46.398Z,2.45
2019-03-20T01:10:17.191Z,2.42
2019-03-20T01:12:46.522Z,2.39
2019-03-20T01:15:15.719Z,2.37
2019-03-20T01:17:45.028Z,2.35
2019-03-20T01:20:15.797Z,2.37
2019-03-20T01:22:45.029Z,2.35
2019-03-20T01:25:14.777Z,2.32
2019-03-20T01:27:43.949Z,2.30
2019-03-20T01:30:33.599Z,2.31
2019-03-20T01:33:04.380Z,2.30
2019-03-20T01:35:33.606Z,2.34
2019-03-20T01:38:02.809Z,2.38
2019-03-20T01:40:31.999Z,2.36
2019-03-20T01:43:01.178Z,2.38
2019-03-20T01:45:30.371Z,2.38
2019-03-20T01:47:59.582Z,2.39
2019-03-20T01:50:28.905Z,2.39
2019-03-20T01:52:58.110Z,2.40
2019-03-20T01:55:27.325Z,2.40
2019-03-20T01:57:56.541Z,2.41
2019-03-20T02:00:25.839Z,2.41
2019-03-20T02:02:55.065Z,2.39
2019-03-20T02:05:34.698Z,2.37
2019-03-20T02:07:53.559Z,2.35
2019-03-20T02:10:22.817Z,2.33
2019-03-20T02:12:51.999Z,2.32
2019-03-20T02:15:21.191Z,2.32
2019-03-20T02:17:50.402Z,2.31
2019-03-20T02:20:19.612Z,2.28
2019-03-20T02:22:48.819Z,2.26
2019-03-20T02:25:18.030Z,2.22
2019-03-20T02:27:47.246Z,2.17
2019-03-20T02:30:16.574Z,2.13
2019-03-20T02:32:45.789Z,2.07
2019-03-20T02:35:14.987Z,2.03
2019-03-20T02:37:44.205Z,2.04
2019-03-20T02:40:13.437Z,2.03
2019-03-20T02:42:42.633Z,2.05
2019-03-20T02:45:12.290Z,1.99
2019-03-20T02:47:41.581Z,2.00
2019-03-20T02:50:10.795Z,1.99
2019-03-20T02:52:40.066Z,2.00
2019-03-20T02:55:09.320Z,2.04
2019-03-20T02:57:38.619Z,2.02
2019-03-20T03:00:09.668Z,2.06
2019-03-20T03:02:38.961Z,2.00
2019-03-20T03:05:08.678Z,1.96
2019-03-20T03:07:38.025Z,1.98
2019-03-20T03:10:08.360Z,1.93
2019-03-20T03:12:37.643Z,1.94
2019-03-20T03:15:06.913Z,1.94
2019-03-20T03:17:36.122Z,1.92
2019-03-20T03:20:05.707Z,1.90
2019-03-20T03:22:34.925Z,1.94
2019-03-20T03:25:04.755Z,1.93
2019-03-20T03:27:33.953Z,1.96
2019-03-20T03:30:03.283Z,1.96
2019-03-20T03:32:32.556Z,1.97
2019-03-20T03:35:01.777Z,2.02
2019-03-20T03:37:30.994Z,2.02
2019-03-20T03:40:00.604Z,2.02
2019-03-20T03:42:29.445Z,1.98
2019-03-20T03:44:58.631Z,1.98
2019-03-20T03:47:27.817Z,1.92
2019-03-20T03:49:57.088Z,1.89
2019-03-20T03:52:26.288Z,1.85
2019-03-20T03:54:55.506Z,1.79
2019-03-20T03:57:24.711Z,1.75
2019-03-20T03:59:53.936Z,1.74
2019-03-20T04:02:23.162Z,1.74
2019-03-20T04:04:52.364Z,1.71
2019-03-20T04:07:23.715Z,1.69
2019-03-20T04:09:50.787Z,1.66
2019-03-20T04:12:19.962Z,1.63
2019-03-20T04:14:49.151Z,1.64
2019-03-20T04:17:26.516Z,1.64
2019-03-20T04:19:55.763Z,1.67
2019-03-20T04:22:24.963Z,1.71
2019-03-20T04:24:54.208Z,1.69
2019-03-20T04:27:23.445Z,1.70
2019-03-20T04:29:52.784Z,1.70
2019-03-20T04:32:21.995Z,1.70
2019-03-20T04:34:51.216Z,1.73
2019-03-20T04:37:20.390Z,1.74
2019-03-20T04:39:49.614Z,1.73
2019-03-20T04:42:18.940Z,1.73
2019-03-20T04:44:48.153Z,1.73
2019-03-20T04:47:17.404Z,1.76
2019-03-20T04:49:46.741Z,1.76
2019-03-20T04:52:16.021Z,1.75
2019-03-20T04:54:47.902Z,1.73
2019-03-20T04:57:16.996Z,1.73
2019-03-20T04:59:46.302Z,1.75
2019-03-20T05:02:15.572Z,1.74
2019-03-20T05:04:44.801Z,1.72
2019-03-20T05:07:14.068Z,1.74
2019-03-20T05:09:43.293Z,1.79
2019-03-20T05:12:12.582Z,1.79
2019-03-20T05:14:41.794Z,1.79
2019-03-20T05:17:10.992Z,1.79
2019-03-20T05:19:40.245Z,1.80
2019-03-20T05:22:09.451Z,1.87
2019-03-20T05:24:38.702Z,1.84
2019-03-20T05:27:07.944Z,1.84
2019-03-20T05:29:37.145Z,1.83
2019-03-20T05:32:06.343Z,1.82
2019-03-20T05:34:35.578Z,1.82
2019-03-20T05:37:10.232Z,1.87
2019-03-20T05:39:34.094Z,1.90
2019-03-20T05:42:03.380Z,1.89
2019-03-20T05:44:32.682Z,1.90
2019-03-20T05:47:01.995Z,1.96
2019-03-20T05:49:31.286Z,2.00
2019-03-20T05:52:00.485Z,2.03
2019-03-20T05:54:29.793Z,2.09
2019-03-20T05:56:58.981Z,2.12
2019-03-20T05:59:28.244Z,2.18
2019-03-20T06:01:57.443Z,2.23
2019-03-20T06:04:26.661Z,2.27
2019-03-20T06:06:55.868Z,2.32
2019-03-20T06:09:25.106Z,2.37
2019-03-20T06:11:54.364Z,2.41
2019-03-20T06:14:23.602Z,2.48
2019-03-20T06:16:52.788Z,2.59
2019-03-20T06:19:22.038Z,2.66
2019-03-20T06:21:51.220Z,2.73
2019-03-20T06:24:20.560Z,2.81
2019-03-20T06:26:49.775Z,2.90
2019-03-20T06:29:20.183Z,2.98
2019-03-20T06:31:48.209Z,3.09
2019-03-20T06:34:17.389Z,3.18
2019-03-20T06:36:46.637Z,3.38
2019-03-20T06:39:15.908Z,3.47
2019-03-20T06:41:45.178Z,3.74
2019-03-20T06:44:14.459Z,3.97
2019-03-20T06:46:43.698Z,4.10
2019-03-20T06:49:12.919Z,4.12
2019-03-20T06:51:42.132Z,4.11
2019-03-20T06:54:11.463Z,4.08
2019-03-20T06:56:40.717Z,4.10
2019-03-20T07:00:10.706Z,4.12
2019-03-20T07:02:42.930Z,4.18
2019-03-20T07:05:54.173Z,4.32
2019-03-20T07:08:24.849Z,4.40
2019-03-20T07:11:05.996Z,4.53
2019-03-20T07:13:35.287Z,4.62
2019-03-20T07:16:04.848Z,4.71
2019-03-20T07:18:34.077Z,4.81
2019-03-20T07:21:03.309Z,4.94
2019-03-20T07:23:32.634Z,5.13
2019-03-20T07:26:01.852Z,5.15
2019-03-20T07:28:31.135Z,5.27
2019-03-20T07:31:00.465Z,5.39
2019-03-20T07:33:29.768Z,5.55
2019-03-20T07:35:59.285Z,5.77
2019-03-20T07:38:28.465Z,5.93
2019-03-20T07:40:57.717Z,6.26
2019-03-20T07:43:27.212Z,6.28
2019-03-20T07:45:56.157Z,6.49
2019-03-20T07:48:25.445Z,6.45
2019-03-20T07:50:54.766Z,6.46
2019-03-20T07:53:23.997Z,6.61
2019-03-20T07:55:53.251Z,6.64
2019-03-20T07:58:22.587Z,6.56
2019-03-20T08:00:51.799Z,6.66
2019-03-20T08:03:21.092Z,6.85
2019-03-20T08:05:50.375Z,6.83
2019-03-20T08:08:19.795Z,6.83
2019-03-20T08:10:49.057Z,6.85
2019-03-20T08:13:18.317Z,7.13
2019-03-20T08:15:47.691Z,7.63
2019-03-20T08:18:17.086Z,7.79
2019-03-20T08:20:46.397Z,8.17
2019-03-20T08:23:15.679Z,8.50
2019-03-20T08:25:52.340Z,8.17
2019-03-20T08:28:15.287Z,8.00
2019-03-20T08:30:44.619Z,8.22
2019-03-20T08:33:13.865Z,8.24
2019-03-20T08:35:43.168Z,8.38
2019-03-20T08:38:18.320Z,8.36
2019-03-20T08:40:41.868Z,9.08
2019-03-20T08:43:11.107Z,9.38
2019-03-20T08:45:40.334Z,9.19
2019-03-20T08:48:09.625Z,9.04
2019-03-20T08:50:38.863Z,9.04
2019-03-20T08:53:08.152Z,9.36
2019-03-20T08:55:37.409Z,9.36
2019-03-20T08:58:06.683Z,9.32
2019-03-20T09:00:36.008Z,9.14
2019-03-20T09:03:05.332Z,9.50
2019-03-20T09:05:34.621Z,9.50
2019-03-20T09:08:03.935Z,9.44
2019-03-20T09:10:33.238Z,9.38
2019-03-20T09:13:02.507Z,9.23
2019-03-20T09:15:31.837Z,9.23
2019-03-20T09:18:01.111Z,9.27
2019-03-20T09:20:30.359Z,9.47
2019-03-20T09:22:59.713Z,9.47
2019-03-20T09:25:28.934Z,9.73
2019-03-20T09:27:58.126Z,9.99
2019-03-20T09:30:27.391Z,9.99
2019-03-20T09:32:56.609Z,10.29
2019-03-20T09:35:25.809Z,10.75
2019-03-20T09:37:55.039Z,11.01
2019-03-20T09:40:24.318Z,10.93
2019-03-20T09:42:53.540Z,11.20
2019-03-20T09:45:22.769Z,11.17
2019-03-20T09:47:52.025Z,11.61
2019-03-20T09:50:21.313Z,11.32
2019-03-20T09:52:50.614Z,11.57
2019-03-20T09:55:19.959Z,11.96
2019-03-20T09:57:49.209Z,12.31
2019-03-20T10:00:22.653Z,12.69
2019-03-20T10:02:51.881Z,12.91
2019-03-20T10:05:21.147Z,13.33
2019-03-20T10:07:50.409Z,12.98
2019-03-20T10:10:20.749Z,13.33
2019-03-20T10:12:49.977Z,12.86
2019-03-20T10:15:19.361Z,12.86
2019-03-20T10:17:48.644Z,12.66
2019-03-20T10:20:18.755Z,12.63
2019-03-20T10:22:47.976Z,13.37
2019-03-20T10:25:17.221Z,13.76
2019-03-20T10:27:46.462Z,14.29
2019-03-20T10:30:17.701Z,14.28
2019-03-20T10:32:46.928Z,14.34
2019-03-20T10:35:16.208Z,14.62
2019-03-20T10:37:45.486Z,14.76
2019-03-20T10:40:16.647Z,13.95
2019-03-20T10:42:45.978Z,13.80
2019-03-20T10:45:15.262Z,13.66
2019-03-20T10:47:44.575Z,13.87
2019-03-20T10:50:15.917Z,13.70
2019-03-20T10:52:45.223Z,13.46
2019-03-20T10:55:14.589Z,13.94
2019-03-20T10:57:43.902Z,14.72
2019-03-20T11:00:17.929Z,15.58
2019-03-20T11:02:47.171Z,16.27
2019-03-20T11:05:16.617Z,15.56
2019-03-20T11:07:45.889Z,15.95
2019-03-20T11:10:19.329Z,15.58
2019-03-20T11:12:48.623Z,15.23
2019-03-20T11:15:17.932Z,16.06
2019-03-20T11:17:47.139Z,15.79
2019-03-20T11:20:16.821Z,16.25
2019-03-20T11:22:46.257Z,16.59
2019-03-20T11:25:16.646Z,16.59
2019-03-20T11:27:45.989Z,16.76
2019-03-20T11:30:22.635Z,16.24
2019-03-20T11:32:51.880Z,15.54
2019-03-20T11:35:21.178Z,15.15
2019-03-20T11:37:50.435Z,14.83
2019-03-20T11:40:24.722Z,14.35
2019-03-20T11:42:53.924Z,13.96
2019-03-20T11:45:23.709Z,13.89
2019-03-20T11:47:52.459Z,13.86
2019-03-20T11:50:30.053Z,13.87
2019-03-20T11:52:59.235Z,13.61
2019-03-20T11:55:28.506Z,13.47
2019-03-20T11:57:57.693Z,13.43
2019-03-20T12:00:26.963Z,13.27
2019-03-20T12:02:56.249Z,12.99
2019-03-20T12:05:25.569Z,12.82
2019-03-20T12:07:54.762Z,12.58
2019-03-20T12:10:24.043Z,12.51
2019-03-20T12:12:53.355Z,12.55
2019-03-20T12:15:22.629Z,12.51
2019-03-20T12:17:51.859Z,12.63
2019-03-20T12:20:21.100Z,12.59
2019-03-20T12:22:50.351Z,12.44
2019-03-20T12:25:21.605Z,12.43
2019-03-20T12:27:50.838Z,12.49
2019-03-20T12:30:21.709Z,12.57
2019-03-20T12:32:50.963Z,12.64
2019-03-20T12:35:20.229Z,12.52
2019-03-20T12:37:49.507Z,12.40
2019-03-20T12:40:20.819Z,12.38
2019-03-20T12:42:50.090Z,12.41
2019-03-20T12:45:20.615Z,12.37
2019-03-20T12:47:49.849Z,12.42
2019-03-20T12:50:19.107Z,12.48
2019-03-20T12:52:48.399Z,12.61
2019-03-20T12:55:17.713Z,12.66
2019-03-20T12:57:47.059Z,12.67
2019-03-20T13:00:18.059Z,12.58
2019-03-20T13:02:47.321Z,12.50
2019-03-20T13:05:16.584Z,12.46
2019-03-20T13:07:45.856Z,12.56
2019-03-20T13:10:16.575Z,12.52
2019-03-20T13:12:46.028Z,12.50
2019-03-20T13:15:17.261Z,12.64
2019-03-20T13:17:46.557Z,12.59
2019-03-20T13:20:15.855Z,12.56
2019-03-20T13:22:46.475Z,12.65
2019-03-20T13:25:16.028Z,12.68
2019-03-20T13:27:45.246Z,12.75
2019-03-20T13:30:25.767Z,12.52
2019-03-20T13:32:55.026Z,12.43
2019-03-20T13:35:24.593Z,12.30
2019-03-20T13:37:53.807Z,12.32
2019-03-20T13:40:23.068Z,12.33
2019-03-20T13:42:52.365Z,12.36
2019-03-20T13:45:21.765Z,12.25
2019-03-20T13:47:51.084Z,12.10
2019-03-20T13:50:20.584Z,12.10
2019-03-20T13:52:49.899Z,12.06
2019-03-20T13:55:19.209Z,12.10
2019-03-20T13:57:48.426Z,11.98
2019-03-20T14:00:19.304Z,12.03
2019-03-20T14:02:48.545Z,12.00
2019-03-20T14:05:17.807Z,12.01
2019-03-20T14:07:47.130Z,12.02
2019-03-20T14:10:25.106Z,12.07
2019-03-20T14:12:47.162Z,12.14
2019-03-20T14:15:16.498Z,12.22
2019-03-20T14:17:45.743Z,12.29
2019-03-20T14:20:17.215Z,12.32
2019-03-20T14:22:46.534Z,12.46
2019-03-20T14:25:15.805Z,12.47
2019-03-20T14:27:45.104Z,12.45
2019-03-20T14:30:22.291Z,12.43
2019-03-20T14:32:51.523Z,12.44
2019-03-20T14:35:20.777Z,12.44
2019-03-20T14:37:50.100Z,12.46
2019-03-20T14:40:21.499Z,12.51
2019-03-20T14:42:50.951Z,12.54
2019-03-20T14:45:20.097Z,12.55
2019-03-20T14:47:49.454Z,12.47
2019-03-20T14:50:20.544Z,12.44
2019-03-20T14:52:49.781Z,12.38
2019-03-20T14:55:19.094Z,12.38
2019-03-20T14:57:48.355Z,12.31
2019-03-20T15:00:19.604Z,12.31
2019-03-20T15:02:48.850Z,12.24
2019-03-20T15:05:18.137Z,12.23
2019-03-20T15:07:47.350Z,12.21
2019-03-20T15:10:17.843Z,12.25
2019-03-20T15:12:47.083Z,12.16
2019-03-20T15:15:31.559Z,12.11
2019-03-20T15:18:00.775Z,12.13
2019-03-20T15:20:30.083Z,12.10
2019-03-20T15:22:59.373Z,12.00
2019-03-20T15:25:28.613Z,11.93
2019-03-20T15:27:57.991Z,11.93
2019-03-20T15:30:29.524Z,11.91
2019-03-20T15:32:56.523Z,11.91
2019-03-20T15:35:25.809Z,11.86
2019-03-20T15:37:58.235Z,11.85
2019-03-20T15:40:27.504Z,11.84
2019-03-20T15:42:56.739Z,11.87
2019-03-20T15:45:26.095Z,11.82
2019-03-20T15:47:55.310Z,11.92
2019-03-20T15:50:24.609Z,11.89
2019-03-20T15:52:53.829Z,11.94
2019-03-20T15:55:25.535Z,11.98
2019-03-20T15:57:54.797Z,11.94
2019-03-20T16:00:24.018Z,11.90
2019-03-20T16:02:55.402Z,11.88
2019-03-20T16:05:24.609Z,11.94
2019-03-20T16:07:53.906Z,11.94
2019-03-20T16:10:23.147Z,11.93
2019-03-20T16:12:52.468Z,11.88
2019-03-20T16:15:21.702Z,11.92
2019-03-20T16:17:50.927Z,11.80
2019-03-20T16:20:20.405Z,11.79
2019-03-20T16:22:49.735Z,11.77
2019-03-20T16:25:18.991Z,11.75
2019-03-20T16:27:48.329Z,11.68
2019-03-20T16:30:19.133Z,11.61
2019-03-20T16:32:48.389Z,11.61
2019-03-20T16:35:17.652Z,11.57
2019-03-20T16:37:46.995Z,11.56
2019-03-20T16:40:21.113Z,11.55
2019-03-20T16:42:50.497Z,11.54
2019-03-20T16:45:22.111Z,11.50
2019-03-20T16:47:51.324Z,11.42
2019-03-20T16:50:20.529Z,11.48
2019-03-20T16:52:49.826Z,11.46
2019-03-20T16:55:19.110Z,11.59
2019-03-20T16:57:48.347Z,11.52
2019-03-20T17:00:25.521Z,11.56
2019-03-20T17:02:54.781Z,11.49
2019-03-20T17:05:23.995Z,11.45
2019-03-20T17:07:53.413Z,11.39
2019-03-20T17:10:27.491Z,11.39
2019-03-20T17:12:56.724Z,11.33
2019-03-20T17:15:26.635Z,11.33
2019-03-20T17:17:55.896Z,11.31
2019-03-20T17:20:25.127Z,11.29
2019-03-20T17:22:54.629Z,11.27
2019-03-20T17:25:23.945Z,11.27
2019-03-20T17:27:53.169Z,11.21
2019-03-20T17:30:24.588Z,11.20
2019-03-20T17:32:53.882Z,11.17
2019-03-20T17:35:23.203Z,11.17
2019-03-20T17:37:52.487Z,11.15
2019-03-20T17:40:21.919Z,11.14
2019-03-20T17:42:51.133Z,11.12
2019-03-20T17:45:20.399Z,11.11
2019-03-20T17:47:49.688Z,11.13
2019-03-20T17:50:20.925Z,11.10
2019-03-20T17:52:50.236Z,11.01
2019-03-20T17:55:19.479Z,10.92
2019-03-20T17:57:48.663Z,10.89
2019-03-20T18:00:31.639Z,10.82
2019-03-20T18:03:01.165Z,10.79
2019-03-20T18:05:30.483Z,10.81
2019-03-20T18:07:59.765Z,10.80
2019-03-20T18:10:29.026Z,10.76
2019-03-20T18:12:58.261Z,10.73
2019-03-20T18:15:27.474Z,10.76
2019-03-20T18:17:56.859Z,10.71
2019-03-20T18:20:26.189Z,10.72
2019-03-20T18:22:55.589Z,10.66
2019-03-20T18:25:24.889Z,10.65
2019-03-20T18:27:54.178Z,10.58
2019-03-20T18:30:23.725Z,10.61
2019-03-20T18:32:53.026Z,10.61
2019-03-20T18:35:22.261Z,10.58
2019-03-20T18:37:53.898Z,10.59
2019-03-20T18:40:21.323Z,10.56
2019-03-20T18:42:50.648Z,10.53
2019-03-20T18:45:20.136Z,10.54
2019-03-20T18:47:49.400Z,10.51
2019-03-20T18:50:18.771Z,10.52
2019-03-20T18:52:48.201Z,10.51
2019-03-20T18:55:17.498Z,10.54
2019-03-20T18:57:46.722Z,10.47
2019-03-20T19:00:18.095Z,10.49
2019-03-20T19:02:47.385Z,9.57
2019-03-20T19:05:22.600Z,10.49
2019-03-20T19:07:51.890Z,10.46
2019-03-20T19:10:21.151Z,10.45
2019-03-20T19:12:50.364Z,10.41
2019-03-20T19:15:19.589Z,10.43
2019-03-20T19:17:48.788Z,10.39
2019-03-20T19:20:19.903Z,10.30
2019-03-20T19:22:47.260Z,10.24
2019-03-20T19:25:16.609Z,10.20
2019-03-20T19:27:45.797Z,10.18
2019-03-20T19:30:17.251Z,10.12
2019-03-20T19:32:46.497Z,10.06
2019-03-20T19:35:15.699Z,10.01
2019-03-20T19:37:44.939Z,10.01
2019-03-20T19:40:14.289Z,9.92
2019-03-20T19:42:43.547Z,9.87
2019-03-20T19:45:12.855Z,9.91
2019-03-20T19:47:42.063Z,9.88
2019-03-20T19:50:12.677Z,9.89
2019-03-20T19:52:42.347Z,9.86
2019-03-20T19:55:11.711Z,9.81
2019-03-20T19:57:40.985Z,9.75
2019-03-20T20:00:12.939Z,9.73
2019-03-20T20:02:42.137Z,9.68
2019-03-20T20:05:15.750Z,9.67
2019-03-20T20:07:40.664Z,9.64
2019-03-20T20:10:10.075Z,9.58
2019-03-20T20:12:39.299Z,9.53
2019-03-20T20:15:11.719Z,9.43
2019-03-20T20:17:41.128Z,9.43
2019-03-20T20:20:12.449Z,9.41
2019-03-20T20:22:41.773Z,9.44
2019-03-20T20:25:11.106Z,9.41
2019-03-20T20:27:40.401Z,9.43
2019-03-20T20:30:12.357Z,9.44
2019-03-20T20:32:41.567Z,9.46
2019-03-20T20:35:11.047Z,9.42
2019-03-20T20:37:40.262Z,9.51
2019-03-20T20:40:11.689Z,9.40
2019-03-20T20:42:43.282Z,9.29
2019-03-20T20:45:10.157Z,9.19
2019-03-20T20:47:39.374Z,9.14
2019-03-20T20:50:08.916Z,9.04
2019-03-20T20:52:38.207Z,8.99
2019-03-20T20:55:08.407Z,8.96
2019-03-20T20:57:37.765Z,8.92
2019-03-20T21:00:11.235Z,8.89
2019-03-20T21:02:40.452Z,8.86
2019-03-20T21:05:09.647Z,8.83
2019-03-20T21:07:38.957Z,8.81
2019-03-20T21:10:09.062Z,8.79
2019-03-20T21:12:38.328Z,8.75
2019-03-20T21:15:16.563Z,8.76
2019-03-20T21:18:09.332Z,8.76
2019-03-20T21:20:39.586Z,8.77
2019-03-20T21:23:49.093Z,8.75
2019-03-20T21:26:19.823Z,8.76
2019-03-20T21:29:16.027Z,8.74
2019-03-20T21:31:53.856Z,8.75
2019-03-20T21:35:00.012Z,8.75
2019-03-20T21:38:01.108Z,8.83
2019-03-20T21:40:32.942Z,8.86
2019-03-20T21:43:39.305Z,8.87
2019-03-20T21:46:48.109Z,8.88
2019-03-20T21:49:18.500Z,8.85
2019-03-20T21:51:48.874Z,8.83
2019-03-20T21:55:12.330Z,8.83
2019-03-20T21:58:08.798Z,8.88
2019-03-20T22:01:18.887Z,8.91
2019-03-20T22:03:49.295Z,8.91
2019-03-20T22:07:21.540Z,8.89
2019-03-20T22:10:41.744Z,8.94
2019-03-20T22:13:31.010Z,8.96
2019-03-20T22:16:23.529Z,8.98
2019-03-20T22:19:33.505Z,8.99
2019-03-20T22:22:55.721Z,8.99
2019-03-20T22:25:52.225Z,9.00
2019-03-20T22:29:07.965Z,9.05
2019-03-20T22:31:40.765Z,9.12
2019-03-20T22:34:41.299Z,9.12
2019-03-20T22:37:11.607Z,9.11
2019-03-20T22:40:34.397Z,9.11
2019-03-20T22:43:17.207Z,9.12
2019-03-20T22:46:34.099Z,9.12
2019-03-20T22:50:01.078Z,9.16
2019-03-20T22:53:05.885Z,9.17
2019-03-20T22:55:58.137Z,9.15
2019-03-20T22:58:42.510Z,9.20
2019-03-20T23:01:19.584Z,9.25
2019-03-20T23:03:54.822Z,9.25
2019-03-20T23:06:25.128Z,9.29
2019-03-20T23:08:55.398Z,9.33
2019-03-20T23:11:25.693Z,9.37
2019-03-20T23:13:56.005Z,9.34
2019-03-20T23:16:26.290Z,9.38
2019-03-20T23:18:56.526Z,9.40
2019-03-20T23:21:26.804Z,9.41
2019-03-20T23:23:57.084Z,9.44
2019-03-20T23:26:27.382Z,9.44
2019-03-20T23:28:57.624Z,9.49
2019-03-20T23:31:27.929Z,9.50
2019-03-20T23:33:58.291Z,9.51
2019-03-20T23:36:28.942Z,9.52
2019-03-20T23:38:59.244Z,9.53
2019-03-20T23:41:29.501Z,9.53
2019-03-20T23:43:59.796Z,9.54
2019-03-20T23:46:30.096Z,9.56
2019-03-20T23:49:18.384Z,9.56
2019-03-20T23:51:48.677Z,9.57
2019-03-20T23:54:22.298Z,9.56
2019-03-20T23:56:52.582Z,9.57
2019-03-20T23:59:22.884Z,9.58
